Orbital elements of COSMOS 2251 DEB
| Launched | 15 June 1993 |
| Flight ended | – |
| Launch site | Plesetsk Missile and Space Complex, Russia |
| Owner | Commonwealth of Independent States (former USSR) |
| NORAD ID | 34128 |
| Date fetched |
Epoch osculation |
Inc. [°] |
Ecc. | RA asc node [hr] |
Arg Peri. [°] |
Mean anom [°] |
Mean motion [rev/day] |
Abs. mag |
| Date fetched |
Epoch osculation |
Inc. [°] |
Ecc. | RA asc node [hr] |
Arg Peri. [°] |
Mean anom [°] |
Mean motion [rev/day] |
Abs. mag |
| 2026 May 04 17:57 | 2026 Apr 29 23:02:04 | 73.9968 | 0.00273 | 0.8276 | 109.9021 | 262.5064 | 15.11962 | – |
| 2026 May 03 17:57 | 2026 Apr 29 23:02:04 | 73.9968 | 0.00273 | 0.8276 | 109.9021 | 262.5064 | 15.11962 | – |
| 2026 May 02 17:57 | 2026 Apr 29 23:02:04 | 73.9968 | 0.00273 | 0.8276 | 109.9021 | 262.5064 | 15.11962 | – |
| 2026 May 01 17:56 | 2026 Apr 29 23:02:04 | 73.9968 | 0.00273 | 0.8276 | 109.9021 | 262.5064 | 15.11962 | – |
| 2026 Apr 30 17:56 | 2026 Apr 29 23:02:04 | 73.9968 | 0.00273 | 0.8276 | 109.9021 | 262.5064 | 15.11962 | – |
| 2026 Apr 29 17:57 | 2026 Apr 24 03:44:29 | 73.9965 | 0.00278 | 1.6303 | 122.0962 | 262.5064 | 15.11962 | – |
| 2026 Apr 28 17:56 | 2026 Apr 24 03:44:29 | 73.9965 | 0.00278 | 1.6303 | 122.0962 | 262.5064 | 15.11962 | – |
| 2026 Apr 27 17:58 | 2026 Apr 24 03:44:29 | 73.9965 | 0.00278 | 1.6303 | 122.0962 | 262.5064 | 15.11962 | – |
| 2026 Apr 26 17:58 | 2026 Apr 24 03:44:29 | 73.9965 | 0.00278 | 1.6303 | 122.0962 | 262.5064 | 15.11962 | – |
| 2026 Apr 25 17:58 | 2026 Apr 24 03:44:29 | 73.9965 | 0.00278 | 1.6303 | 122.0962 | 262.5064 | 15.11962 | – |
| 2026 Apr 24 17:59 | 2026 Apr 24 03:44:29 | 73.9965 | 0.00278 | 1.6303 | 122.0962 | 262.5064 | 15.11962 | – |
| 2026 Apr 23 17:57 | 2026 Apr 19 12:44:54 | 73.9979 | 0.00278 | 2.2695 | 132.6766 | 262.5064 | 15.11962 | – |
| 2026 Apr 22 17:57 | 2026 Apr 19 12:44:54 | 73.9979 | 0.00278 | 2.2695 | 132.6766 | 262.5064 | 15.11962 | – |
| 2026 Apr 21 17:57 | 2026 Apr 19 12:44:54 | 73.9979 | 0.00278 | 2.2695 | 132.6766 | 262.5064 | 15.11962 | – |
| 2026 Apr 20 17:57 | 2026 Apr 19 12:44:54 | 73.9979 | 0.00278 | 2.2695 | 132.6766 | 262.5064 | 15.11962 | – |
| 2026 Apr 19 17:58 | 2026 Apr 19 12:44:54 | 73.9979 | 0.00278 | 2.2695 | 132.6766 | 262.5064 | 15.11962 | – |
| 2026 Apr 18 17:56 | 2026 Apr 13 07:16:29 | 73.9984 | 0.00273 | 3.1296 | 148.1356 | 262.5064 | 15.11962 | – |
| 2026 Apr 16 17:57 | 2026 Apr 13 07:16:29 | 73.9984 | 0.00273 | 3.1296 | 148.1356 | 262.5064 | 15.11962 | – |
| 2026 Apr 14 17:57 | 2026 Apr 13 07:16:29 | 73.9984 | 0.00273 | 3.1296 | 148.1356 | 262.5064 | 15.11962 | – |
| 2026 Apr 13 17:57 | 2026 Apr 13 07:16:29 | 73.9984 | 0.00273 | 3.1296 | 148.1356 | 262.5064 | 15.11962 | – |
| 2026 Apr 12 17:57 | 2026 Apr 08 06:19:17 | 73.9988 | 0.00271 | 3.8253 | 160.2780 | 262.5064 | 15.11962 | – |
| 2026 Apr 11 17:57 | 2026 Apr 08 06:19:17 | 73.9988 | 0.00271 | 3.8253 | 160.2780 | 262.5064 | 15.11962 | – |
| 2026 Apr 10 17:58 | 2026 Apr 08 06:19:17 | 73.9988 | 0.00271 | 3.8253 | 160.2780 | 262.5064 | 15.11962 | – |
| 2026 Apr 09 18:01 | 2026 Apr 08 06:19:17 | 73.9988 | 0.00271 | 3.8253 | 160.2780 | 262.5064 | 15.11962 | – |
| 2026 Apr 08 17:57 | 2026 Apr 08 06:19:17 | 73.9988 | 0.00271 | 3.8253 | 160.2780 | 262.5064 | 15.11962 | – |
| 2026 Apr 07 17:57 | 2026 Apr 02 05:10:29 | 73.9955 | 0.00269 | 4.6594 | 173.8165 | 262.5064 | 15.11962 | – |